Terminal Aerodrome Forecast
Issued by NWS Twin Cities, MN

Home | Current Version | Previous Version | Graphics & Text | Print | Product List | Glossary On
Versions: 1 2 3 4 5 6 7 8 9 10 11 12 13 14 15 16
000
FTUS43 KMPX 251000 AAA
TAFEAU
TAF AMD
KEAU 251001Z 2510/2606 00000KT 3SM BR SCT150
      TEMPO 2512/2514 1SM BR
     FM251400 25009KT P6SM SKC
     FM260100 29005KT P6SM SCT150=

USA.gov is the U.S. government's official web portal to all federal, state and local government web resources and services.